Time,TemperatureF,DewpointF,PressureIn,WindDirection,WindDirectionDegrees,WindSpeedMPH,WindSpeedGustMPH,Humidity,HourlyPrecipIn,Conditions,Clouds,dailyrainin,SoftwareType,DateUTC
2013-11-09 00:21:00,39.0,24.0,-100.00,NW,310,19.0,26.0,55,-99.99,,,0.00,,2013-11-09 07:21:00,
2013-11-09 00:42:00,38.0,23.0,-100.00,WNW,300,13.0,20.0,54,-99.99,,,0.00,,2013-11-09 07:42:00,
2013-11-09 00:52:00,38.0,23.0,-100.00,WNW,300,13.0,20.0,54,-99.99,,,0.00,,2013-11-09 07:52:00,
2013-11-09 01:00:00,36.0,20.0,-100.00,NW,305,13.0,19.0,51,-99.99,,,0.00,,2013-11-09 08:00:00,
2013-11-09 01:12:00,37.0,21.0,-100.00,NW,305,16.0,21.0,53,-99.99,,,0.00,,2013-11-09 08:12:00,
2013-11-09 01:21:00,37.0,21.0,-100.00,NW,305,16.0,21.0,53,-99.99,,,0.00,,2013-11-09 08:21:00,
2013-11-09 01:42:00,36.0,20.0,-100.00,NW,305,13.0,19.0,51,-99.99,,,0.00,,2013-11-09 08:42:00,
2013-11-09 01:52:00,36.0,20.0,-100.00,NW,305,13.0,19.0,51,-99.99,,,0.00,,2013-11-09 08:52:00,
2013-11-09 02:21:00,37.0,20.0,-100.00,WNW,290,11.0,16.0,49,-99.99,,,0.00,,2013-11-09 09:21:00,
2013-11-09 02:42:00,38.0,19.0,-100.00,WNW,290,10.0,15.0,47,-99.99,,,0.00,,2013-11-09 09:42:00,
2013-11-09 02:53:00,38.0,19.0,-100.00,WNW,290,10.0,15.0,47,-99.99,,,0.00,,2013-11-09 09:53:00,
2013-11-09 03:12:00,39.0,19.0,-100.00,NW,310,17.0,24.0,44,-99.99,,,0.00,,2013-11-09 10:12:00,
2013-11-09 03:23:00,39.0,19.0,-100.00,NW,310,17.0,24.0,44,-99.99,,,0.00,,2013-11-09 10:23:00,
2013-11-09 03:42:00,38.0,18.0,-100.00,NW,305,15.0,20.0,44,-99.99,,,0.00,,2013-11-09 10:42:00,
2013-11-09 03:52:00,38.0,18.0,-100.00,NW,305,15.0,20.0,44,-99.99,,,0.00,,2013-11-09 10:52:00,
2013-11-09 04:11:00,38.0,18.0,-100.00,NW,305,11.0,15.0,45,-99.99,,,0.00,,2013-11-09 11:11:00,
2013-11-09 04:22:00,38.0,18.0,-100.00,NW,305,11.0,15.0,45,-99.99,,,0.00,,2013-11-09 11:22:00,
2013-11-09 04:42:00,37.0,19.0,-100.00,WNW,285,8.0,12.0,46,-99.99,,,0.00,,2013-11-09 11:42:00,
2013-11-09 04:52:00,37.0,19.0,-100.00,WNW,285,8.0,12.0,46,-99.99,,,0.00,,2013-11-09 11:52:00,
2013-11-09 05:12:00,36.0,19.0,-100.00,NW,310,7.0,9.0,48,-99.99,,,0.00,,2013-11-09 12:12:00,
2013-11-09 05:21:00,36.0,19.0,-100.00,NW,310,7.0,9.0,48,-99.99,,,0.00,,2013-11-09 12:21:00,
2013-11-09 05:42:00,36.0,18.0,-100.00,West,275,3.0,4.0,48,-99.99,,,0.00,,2013-11-09 12:42:00,
2013-11-09 05:52:00,36.0,18.0,-100.00,West,275,3.0,4.0,48,-99.99,,,0.00,,2013-11-09 12:52:00,
2013-11-09 06:11:00,36.0,18.0,-100.00,SSW,210,3.0,4.0,48,-99.99,,,0.00,,2013-11-09 13:11:00,
2013-11-09 06:21:00,36.0,18.0,-100.00,SSW,210,3.0,4.0,48,-99.99,,,0.00,,2013-11-09 13:21:00,
2013-11-09 06:42:00,36.0,18.0,-100.00,SSE,165,4.0,4.0,48,-99.99,,,0.00,,2013-11-09 13:42:00,
2013-11-09 06:52:00,36.0,18.0,-100.00,SSE,165,4.0,4.0,48,-99.99,,,0.00,,2013-11-09 13:52:00,
2013-11-09 07:00:00,33.0,18.0,-100.00,East,90,7.0,8.0,54,-99.99,,,0.00,,2013-11-09 14:00:00,
2013-11-09 07:11:00,36.0,18.0,-100.00,South,185,3.0,6.0,48,-99.99,,,0.00,,2013-11-09 14:11:00,
2013-11-09 07:22:00,36.0,18.0,-100.00,South,185,3.0,6.0,48,-99.99,,,0.00,,2013-11-09 14:22:00,
2013-11-09 07:42:00,33.0,18.0,-100.00,East,90,7.0,8.0,54,-99.99,,,0.00,,2013-11-09 14:42:00,
2013-11-09 07:52:00,33.0,18.0,-100.00,East,90,7.0,8.0,54,-99.99,,,0.00,,2013-11-09 14:52:00,
2013-11-09 08:00:00,34.0,23.0,-100.00,SE,130,11.0,13.0,65,-99.99,,,0.00,,2013-11-09 15:00:00,
2013-11-09 08:21:00,32.0,20.0,-100.00,ESE,110,8.0,9.0,62,-99.99,,,0.00,,2013-11-09 15:21:00,
2013-11-09 08:44:00,34.0,23.0,-100.00,SE,130,11.0,13.0,65,-99.99,,,0.00,,2013-11-09 15:44:00,
2013-11-09 08:53:00,34.0,23.0,-100.00,SE,130,11.0,13.0,65,-99.99,,,0.00,,2013-11-09 15:53:00,
2013-11-09 09:00:00,38.0,25.0,-100.00,SE,145,12.0,15.0,60,-99.99,,,0.00,,2013-11-09 16:00:00,
2013-11-09 09:23:00,37.0,25.0,-100.00,SE,130,10.0,14.0,62,-99.99,,,0.00,,2013-11-09 16:23:00,
2013-11-09 09:43:00,38.0,25.0,-100.00,SE,145,12.0,15.0,60,-99.99,,,0.00,,2013-11-09 16:43:00,
2013-11-09 09:52:00,38.0,25.0,-100.00,SE,145,12.0,15.0,60,-99.99,,,0.00,,2013-11-09 16:52:00,
2013-11-09 10:43:00,39.0,25.0,-100.00,South,175,10.0,14.0,56,-99.99,,,0.00,,2013-11-09 17:43:00,
2013-11-09 10:52:00,39.0,25.0,-100.00,South,175,10.0,14.0,56,-99.99,,,0.00,,2013-11-09 17:52:00,
2013-11-09 11:00:00,41.0,24.0,-100.00,South,170,7.0,11.0,50,-99.99,,,0.00,,2013-11-09 18:00:00,
2013-11-09 11:12:00,41.0,24.0,-100.00,SSE,160,9.0,12.0,51,-99.99,,,0.00,,2013-11-09 18:12:00,
2013-11-09 11:23:00,41.0,24.0,-100.00,SSE,160,9.0,12.0,51,-99.99,,,0.00,,2013-11-09 18:23:00,
2013-11-09 11:42:00,41.0,24.0,-100.00,South,170,7.0,11.0,50,-99.99,,,0.00,,2013-11-09 18:42:00,
2013-11-09 11:52:00,41.0,24.0,-100.00,South,170,7.0,11.0,50,-99.99,,,0.00,,2013-11-09 18:52:00,
2013-11-09 12:00:00,43.0,21.0,-100.00,SSW,205,4.0,7.0,41,-99.99,,,0.00,,2013-11-09 19:00:00,
2013-11-09 12:23:00,43.0,23.0,-100.00,South,180,4.0,9.0,44,-99.99,,,0.00,,2013-11-09 19:23:00,
2013-11-09 12:42:00,43.0,21.0,-100.00,SSW,205,4.0,7.0,41,-99.99,,,0.00,,2013-11-09 19:42:00,
2013-11-09 12:52:00,43.0,21.0,-100.00,SSW,205,4.0,7.0,41,-99.99,,,0.00,,2013-11-09 19:52:00,
2013-11-09 13:22:00,44.0,22.0,-100.00,ENE,75,2.0,9.0,41,-99.99,,,0.00,,2013-11-09 20:22:00,
2013-11-09 13:42:00,44.0,21.0,-100.00,SSW,195,4.0,8.0,40,-99.99,,,0.00,,2013-11-09 20:42:00,
2013-11-09 13:52:00,44.0,21.0,-100.00,SSW,195,4.0,8.0,40,-99.99,,,0.00,,2013-11-09 20:52:00,
2013-11-09 14:00:00,46.0,21.0,-100.00,South,170,4.0,8.0,37,-99.99,,,0.00,,2013-11-09 21:00:00,
2013-11-09 14:11:00,45.0,21.0,-100.00,South,185,1.0,6.0,38,-99.99,,,0.00,,2013-11-09 21:11:00,
2013-11-09 14:22:00,45.0,21.0,-100.00,South,185,1.0,6.0,38,-99.99,,,0.00,,2013-11-09 21:22:00,
2013-11-09 14:44:00,46.0,21.0,-100.00,South,170,4.0,8.0,37,-99.99,,,0.00,,2013-11-09 21:44:00,
2013-11-09 14:54:00,46.0,21.0,-100.00,South,170,4.0,8.0,37,-99.99,,,0.00,,2013-11-09 21:54:00,
2013-11-09 15:00:00,45.0,20.0,-100.00,SE,135,6.0,8.0,37,-99.99,,,0.00,,2013-11-09 22:00:00,
2013-11-09 15:24:00,46.0,21.0,-100.00,SSE,155,3.0,7.0,37,-99.99,,,0.00,,2013-11-09 22:24:00,
2013-11-09 15:54:00,45.0,20.0,-100.00,SE,135,6.0,8.0,37,-99.99,,,0.00,,2013-11-09 22:54:00,
2013-11-09 16:00:00,43.0,19.0,-100.00,SE,135,4.0,6.0,39,-99.99,,,0.00,,2013-11-09 23:00:00,
2013-11-09 16:22:00,44.0,20.0,-100.00,SE,130,8.0,9.0,39,-99.99,,,0.00,,2013-11-09 23:22:00,
2013-11-09 16:42:00,43.0,19.0,-100.00,SE,135,4.0,6.0,39,-99.99,,,0.00,,2013-11-09 23:42:00,
2013-11-09 16:53:00,43.0,19.0,-100.00,SE,135,4.0,6.0,39,-99.99,,,0.00,,2013-11-09 23:53:00,
2013-11-09 17:00:00,38.0,19.0,-100.00,ESE,115,9.0,9.0,47,-99.99,,,0.00,,2013-11-10 00:00:00,
2013-11-09 17:21:00,39.0,20.0,-100.00,ESE,115,6.0,7.0,45,-99.99,,,0.00,,2013-11-10 00:21:00,
2013-11-09 17:42:00,38.0,19.0,-100.00,ESE,115,9.0,9.0,47,-99.99,,,0.00,,2013-11-10 00:42:00,
2013-11-09 17:52:00,38.0,19.0,-100.00,ESE,115,9.0,9.0,47,-99.99,,,0.00,,2013-11-10 00:52:00,
2013-11-09 18:21:00,38.0,19.0,-100.00,ESE,105,9.0,11.0,47,-99.99,,,0.00,,2013-11-10 01:21:00,
2013-11-09 18:52:00,37.0,20.0,-100.00,East,100,9.0,10.0,50,-99.99,,,0.00,,2013-11-10 01:52:00,
2013-11-09 19:00:00,39.0,20.0,-100.00,SE,135,9.0,12.0,47,-99.99,,,0.00,,2013-11-10 02:00:00,
2013-11-09 19:12:00,36.0,21.0,-100.00,SE,135,8.0,11.0,52,-99.99,,,0.00,,2013-11-10 02:12:00,
2013-11-09 19:22:00,36.0,21.0,-100.00,SE,135,8.0,11.0,52,-99.99,,,0.00,,2013-11-10 02:22:00,
2013-11-09 19:42:00,39.0,20.0,-100.00,SE,135,9.0,12.0,47,-99.99,,,0.00,,2013-11-10 02:42:00,
2013-11-09 19:52:00,39.0,20.0,-100.00,SE,135,9.0,12.0,47,-99.99,,,0.00,,2013-11-10 02:52:00,
2013-11-09 20:00:00,-999.0,-99.9,-100.00,SE,125,12.0,15.0,-999,-99.99,,,-99.99,,2013-11-10 03:00:00,
2013-11-09 20:22:00,37.0,20.0,-100.00,SE,130,7.0,13.0,49,-99.99,,,0.00,,2013-11-10 03:22:00,
2013-11-09 20:44:00,38.0,20.0,-100.00,SE,125,12.0,15.0,48,-99.99,,,0.00,,2013-11-10 03:44:00,
2013-11-09 20:54:00,38.0,20.0,-100.00,SE,125,12.0,15.0,48,-99.99,,,0.00,,2013-11-10 03:54:00,
2013-11-09 21:00:00,39.0,20.0,-100.00,SE,135,11.0,17.0,46,-99.99,,,0.00,,2013-11-10 04:00:00,
2013-11-09 21:23:00,39.0,20.0,-100.00,SE,140,14.0,19.0,46,-99.99,,,0.00,,2013-11-10 04:23:00,
2013-11-09 21:43:00,39.0,20.0,-100.00,SE,135,11.0,17.0,46,-99.99,,,0.00,,2013-11-10 04:43:00,
2013-11-09 21:52:00,39.0,20.0,-100.00,SE,135,11.0,17.0,46,-99.99,,,0.00,,2013-11-10 04:52:00,
2013-11-09 22:43:00,41.0,20.0,-100.00,SE,145,12.0,16.0,44,-99.99,,,0.00,,2013-11-10 05:43:00,
2013-11-09 22:53:00,41.0,20.0,-100.00,SE,145,12.0,16.0,44,-99.99,,,0.00,,2013-11-10 05:53:00,
2013-11-09 23:00:00,39.0,20.0,-100.00,SSW,200,3.0,7.0,46,-99.99,,,0.00,,2013-11-10 06:00:00,
2013-11-09 23:13:00,40.0,20.0,-100.00,SSE,150,6.0,10.0,44,-99.99,,,0.00,,2013-11-10 06:13:00,
2013-11-09 23:42:00,39.0,20.0,-100.00,SSW,200,3.0,7.0,46,-99.99,,,0.00,,2013-11-10 06:42:00,
2013-11-09 23:52:00,39.0,20.0,-100.00,SSW,200,3.0,7.0,46,-99.99,,,0.00,,2013-11-10 06:52:00,